KCLW/CLW METAR and TAF weather

Enter ICAO airport designator
Station Type Date Time Source
KCLW METAR 2018/04/27 00:55 UTC NOAA

KCLW 270055Z AUTO 26004KT 10SM SCT024 SCT029 21/17 A2991 RMK AO2


Station Type Date Time Source
KCLW Decoded METAR 2018/04/27 00:55 UTC NOAA

Station name not available
Apr 26, 2018 - 08:55 PM EDT / 2018.04.27 0055 UTC
Wind: from the W (260 degrees) at 5 MPH (4 KT):0
Visibility: 10 mile(s):0
Sky conditions: partly cloudy
Temperature: 69 F (21 C)
Dew Point: 62 F (17 C)
Relative Humidity: 77%
Pressure (altimeter): 29.91 in. Hg (1012 hPa)
ob: KCLW 270055Z AUTO 26004KT 10SM SCT024 SCT029 21/17 A2991 RMK AO2
cycle: 1

Station Type Date Time Source
KCLW TAF UTC NOAA

Error!


Example: see airport list